createdAt,value
2022-10-18T00:00:02.328Z,25.52
2022-10-18T00:03:17.223Z,17.93
2022-10-18T00:06:25.220Z,21.83
2022-10-18T00:09:34.363Z,18.65
2022-10-18T00:12:50.263Z,16.70
2022-10-18T00:16:18.308Z,18.48
2022-10-18T00:19:33.222Z,17.70
2022-10-18T00:22:42.062Z,17.67
2022-10-18T00:25:50.240Z,20.55
2022-10-18T00:29:09.260Z,23.92
2022-10-18T00:32:17.796Z,22.70
2022-10-18T00:35:32.208Z,22.27
2022-10-18T00:38:40.344Z,21.98
2022-10-18T00:41:56.274Z,21.58
2022-10-18T00:45:23.256Z,24.33
2022-10-18T00:48:38.358Z,26.12
2022-10-18T00:51:58.290Z,28.73
2022-10-18T00:55:07.276Z,18.00
2022-10-18T00:58:18.189Z,15.40
2022-10-18T01:01:33.352Z,16.00
2022-10-18T01:04:42.086Z,17.75
2022-10-18T01:08:14.273Z,14.60
2022-10-18T01:11:42.853Z,15.43
2022-10-18T01:15:16.252Z,20.17
2022-10-18T01:19:02.296Z,16.37
2022-10-18T01:22:12.029Z,15.88
2022-10-18T01:25:42.241Z,14.43
2022-10-18T01:29:18.270Z,21.35
2022-10-18T01:32:40.250Z,24.08
2022-10-18T01:36:04.286Z,20.02
2022-10-18T01:39:16.980Z,14.45
2022-10-18T01:42:27.292Z,17.20
2022-10-18T01:45:42.254Z,16.73
2022-10-18T01:49:00.280Z,21.73
2022-10-18T01:55:36.342Z,20.75
2022-10-18T01:58:54.020Z,19.93
2022-10-18T02:02:27.309Z,19.20
2022-10-18T02:05:45.263Z,21.95
2022-10-18T02:09:04.187Z,23.70
2022-10-18T02:12:17.316Z,23.95
2022-10-18T02:15:33.939Z,19.50
2022-10-18T02:18:55.261Z,21.58
2022-10-18T02:22:12.421Z,20.40
2022-10-18T02:25:20.250Z,19.92
2022-10-18T02:28:35.348Z,22.73
2022-10-18T02:31:45.611Z,21.70
2022-10-18T02:35:07.288Z,19.35
2022-10-18T02:38:11.989Z,19.05
2022-10-18T02:41:31.303Z,18.92
2022-10-18T02:44:46.312Z,17.00
2022-10-18T02:47:54.300Z,16.17
2022-10-18T02:51:09.302Z,37.63
2022-10-18T02:54:17.318Z,21.87
2022-10-18T02:57:25.933Z,18.62
2022-10-18T03:00:34.341Z,22.55
2022-10-18T03:03:43.164Z,22.80
2022-10-18T03:06:51.327Z,21.25
2022-10-18T03:10:06.327Z,22.95
2022-10-18T03:13:08.491Z,21.60
2022-10-18T03:16:24.332Z,21.23
2022-10-18T03:19:32.578Z,22.37
2022-10-18T03:22:47.323Z,21.83
2022-10-18T03:25:49.067Z,22.77
2022-10-18T03:29:04.400Z,21.12
2022-10-18T03:32:13.364Z,20.90
2022-10-18T03:35:22.091Z,17.93
2022-10-18T03:38:30.335Z,27.27
2022-10-18T03:41:39.098Z,23.90
2022-10-18T03:44:47.403Z,19.58
2022-10-18T03:47:55.864Z,18.85
2022-10-18T03:51:04.365Z,15.63
2022-10-18T03:54:19.382Z,19.33
2022-10-18T03:57:27.966Z,18.08
2022-10-18T04:00:43.393Z,17.33
2022-10-18T04:03:58.365Z,22.90
2022-10-18T04:07:07.342Z,23.40
2022-10-18T04:10:16.415Z,19.25
2022-10-18T04:13:25.348Z,22.13
2022-10-18T04:16:40.588Z,19.35
2022-10-18T04:19:55.340Z,19.45
2022-10-18T04:23:03.383Z,18.30
2022-10-18T04:26:11.870Z,19.65
2022-10-18T04:29:20.395Z,17.52
2022-10-18T04:32:29.088Z,21.80
2022-10-18T04:35:37.516Z,20.17
2022-10-18T04:38:45.935Z,22.17
2022-10-18T04:41:54.425Z,21.67
2022-10-18T04:45:10.387Z,22.62
2022-10-18T04:48:12.812Z,18.00
2022-10-18T04:51:27.423Z,21.23
2022-10-18T04:54:35.361Z,32.00
2022-10-18T04:57:50.408Z,22.02
2022-10-18T05:00:59.298Z,26.02
2022-10-18T05:04:14.409Z,50.25
2022-10-18T05:07:22.464Z,21.67
2022-10-18T05:10:38.388Z,22.87
2022-10-18T05:13:40.209Z,20.60
2022-10-18T05:16:55.442Z,29.73
2022-10-18T05:20:04.368Z,18.67
2022-10-18T05:23:19.411Z,21.85
2022-10-18T05:26:27.928Z,18.97
2022-10-18T05:29:42.488Z,30.88
2022-10-18T05:32:50.464Z,21.33
2022-10-18T05:36:08.635Z,20.37
2022-10-18T05:39:17.396Z,23.58
2022-10-18T05:42:26.131Z,24.77
2022-10-18T05:45:34.409Z,22.05
2022-10-18T05:48:44.442Z,26.02
2022-10-18T05:51:53.626Z,25.10
2022-10-18T05:55:08.408Z,30.70
2022-10-18T05:58:17.707Z,31.90
2022-10-18T06:01:26.105Z,26.05
2022-10-18T06:04:34.388Z,26.92
2022-10-18T06:07:49.567Z,26.12
2022-10-18T06:10:52.604Z,28.23
2022-10-18T06:14:07.420Z,21.27
2022-10-18T06:17:15.480Z,29.85
2022-10-18T06:20:37.469Z,30.58
2022-10-18T06:23:46.460Z,25.25
2022-10-18T06:26:55.171Z,23.42
2022-10-18T06:30:10.456Z,24.47
2022-10-18T06:33:19.003Z,21.20
2022-10-18T06:36:33.520Z,24.15
2022-10-18T06:39:48.445Z,30.55
2022-10-18T06:43:00.763Z,25.20
2022-10-18T06:46:26.469Z,21.57
2022-10-18T06:49:34.573Z,27.50
2022-10-18T06:52:43.105Z,19.60
2022-10-18T06:55:51.455Z,26.87
2022-10-18T06:59:00.340Z,25.30
2022-10-18T07:02:09.593Z,23.40
2022-10-18T07:05:19.473Z,24.48
2022-10-18T07:08:27.607Z,26.95
2022-10-18T07:11:36.258Z,21.85
2022-10-18T07:14:44.521Z,24.00
2022-10-18T07:17:59.488Z,28.17
2022-10-18T07:21:16.626Z,29.12
2022-10-18T07:24:24.511Z,25.62
2022-10-18T07:27:41.940Z,28.15
2022-10-18T07:31:00.326Z,25.15
2022-10-18T07:34:19.518Z,24.73
2022-10-18T07:37:35.827Z,27.42
2022-10-18T07:40:44.483Z,28.10
2022-10-18T07:44:00.512Z,28.08
2022-10-18T07:47:08.500Z,21.45
2022-10-18T07:50:18.147Z,27.47
2022-10-18T07:53:26.447Z,25.15
2022-10-18T07:56:35.023Z,26.33
2022-10-18T07:59:43.628Z,26.27
2022-10-18T08:03:00.531Z,24.33
2022-10-18T08:06:10.491Z,27.17
2022-10-18T08:09:25.484Z,23.80
2022-10-18T08:12:27.496Z,25.88
2022-10-18T08:15:42.571Z,29.77
2022-10-18T08:18:57.507Z,24.47
2022-10-18T08:22:12.697Z,27.77
2022-10-18T08:25:21.520Z,26.45
2022-10-18T08:28:30.393Z,24.75
2022-10-18T08:31:39.603Z,24.40
2022-10-18T08:34:54.563Z,28.23
2022-10-18T08:37:56.335Z,26.20
2022-10-18T08:41:36.681Z,26.77
2022-10-18T08:44:52.475Z,19.85
2022-10-18T08:48:07.559Z,21.12
2022-10-18T08:51:31.548Z,17.17
2022-10-18T08:55:02.558Z,17.77
2022-10-18T08:58:23.488Z,18.77
2022-10-18T09:02:08.634Z,15.10
2022-10-18T09:05:35.578Z,19.40
2022-10-18T09:09:04.452Z,17.20
2022-10-18T09:12:36.622Z,22.30
2022-10-18T09:15:58.521Z,17.08
2022-10-18T09:19:32.072Z,17.48
2022-10-18T09:22:59.608Z,14.65
2022-10-18T09:26:18.300Z,19.90
2022-10-18T09:29:42.656Z,18.73
2022-10-18T09:33:10.667Z,15.85
2022-10-18T09:36:23.494Z,15.13
2022-10-18T09:39:44.533Z,15.68
2022-10-18T09:42:55.374Z,20.53
2022-10-18T09:46:12.582Z,19.13
2022-10-18T09:49:21.349Z,18.50
2022-10-18T09:52:51.527Z,13.93
2022-10-18T09:56:09.565Z,21.58
2022-10-18T09:59:34.050Z,15.97
2022-10-18T10:02:42.559Z,12.90
2022-10-18T10:06:22.531Z,16.65
2022-10-18T10:09:46.811Z,14.87
2022-10-18T10:13:28.400Z,17.83
2022-10-18T10:16:37.271Z,12.93
2022-10-18T10:20:21.583Z,11.53
2022-10-18T10:23:27.979Z,16.35
2022-10-18T10:26:43.910Z,21.12
2022-10-18T10:29:53.134Z,21.73
2022-10-18T10:33:08.696Z,10.50
2022-10-18T10:36:28.622Z,13.47
2022-10-18T10:39:37.282Z,13.73
2022-10-18T10:43:32.915Z,13.43
2022-10-18T10:46:42.414Z,11.93
2022-10-18T10:50:07.856Z,12.40
2022-10-18T10:53:38.758Z,13.47
2022-10-18T10:57:05.216Z,11.40
2022-10-18T11:00:40.598Z,15.15
2022-10-18T11:03:55.149Z,14.98
2022-10-18T11:07:38.349Z,17.97
2022-10-18T11:10:55.006Z,12.47
2022-10-18T11:14:26.273Z,10.65
2022-10-18T11:17:39.480Z,15.18
2022-10-18T11:21:13.616Z,22.48
2022-10-18T11:24:23.582Z,10.17
2022-10-18T11:27:36.588Z,12.17
2022-10-18T11:31:09.965Z,12.75
2022-10-18T11:34:38.138Z,12.95
2022-10-18T11:38:03.667Z,10.43
2022-10-18T11:41:38.761Z,12.05
2022-10-18T11:45:04.802Z,9.13
2022-10-18T11:48:37.624Z,13.02
2022-10-18T11:52:07.856Z,10.98
2022-10-18T11:55:41.667Z,17.02
2022-10-18T11:59:12.779Z,8.63
2022-10-18T12:02:51.192Z,11.00
2022-10-18T12:06:02.647Z,13.32
2022-10-18T12:09:31.831Z,13.10
2022-10-18T12:12:48.664Z,13.30
2022-10-18T12:16:04.742Z,11.93
2022-10-18T12:19:23.709Z,10.47
2022-10-18T12:22:53.647Z,7.50
2022-10-18T12:26:08.648Z,7.68
2022-10-18T12:29:30.211Z,8.30
2022-10-18T12:33:02.212Z,9.98
2022-10-18T12:36:39.748Z,14.53
2022-10-18T12:40:18.488Z,10.02
2022-10-18T12:43:37.692Z,10.45
2022-10-18T12:47:02.662Z,9.60
2022-10-18T12:50:28.875Z,12.60
2022-10-18T12:53:38.736Z,13.13
2022-10-18T12:56:48.687Z,6.65
2022-10-18T12:59:57.805Z,7.97
2022-10-18T13:03:36.697Z,9.25
2022-10-18T13:07:21.751Z,14.30
2022-10-18T13:10:44.140Z,11.20
2022-10-18T13:14:18.680Z,6.18
2022-10-18T13:17:43.692Z,6.47
2022-10-18T13:21:21.746Z,9.55
2022-10-18T13:24:37.754Z,10.00
2022-10-18T13:28:11.733Z,9.60
2022-10-18T13:31:39.819Z,10.88
2022-10-18T13:34:48.700Z,9.25
2022-10-18T13:38:05.825Z,8.23
2022-10-18T13:41:28.286Z,11.53
2022-10-18T13:44:34.667Z,9.57
2022-10-18T13:47:49.749Z,9.55
2022-10-18T13:51:11.239Z,7.15
2022-10-18T13:54:38.779Z,8.25
2022-10-18T13:58:07.653Z,7.20
2022-10-18T14:01:39.052Z,6.97
2022-10-18T14:05:24.489Z,8.98
2022-10-18T14:08:42.808Z,9.85
2022-10-18T14:12:03.780Z,9.73
2022-10-18T14:15:15.752Z,7.93
2022-10-18T14:18:37.741Z,7.67
2022-10-18T14:21:43.431Z,9.88
2022-10-18T14:25:00.782Z,9.27
2022-10-18T14:28:36.352Z,10.63
2022-10-18T14:32:02.680Z,12.13
2022-10-18T14:35:32.700Z,8.90
2022-10-18T14:38:38.536Z,10.95
2022-10-18T14:41:57.931Z,11.55
2022-10-18T14:48:28.755Z,7.80
2022-10-18T14:51:42.859Z,9.30
2022-10-18T14:54:55.016Z,12.13
2022-10-18T14:58:09.788Z,9.77
2022-10-18T15:01:20.026Z,11.63
2022-10-18T15:04:35.777Z,7.60
2022-10-18T15:07:43.748Z,13.07
2022-10-18T15:10:53.275Z,10.85
2022-10-18T15:14:09.724Z,9.57
2022-10-18T15:17:39.756Z,9.75
2022-10-18T15:21:15.769Z,9.63
2022-10-18T15:24:37.748Z,10.83
2022-10-18T15:27:46.784Z,10.55
2022-10-18T15:30:55.852Z,10.52
2022-10-18T15:34:16.821Z,15.95
2022-10-18T15:37:38.691Z,13.83
2022-10-18T15:40:47.828Z,14.90
2022-10-18T15:44:14.233Z,10.02
2022-10-18T15:47:25.786Z,9.75
2022-10-18T15:50:44.073Z,20.95
2022-10-18T15:53:59.787Z,16.40
2022-10-18T15:57:16.756Z,17.73
2022-10-18T16:00:27.834Z,12.98
2022-10-18T16:03:36.588Z,19.67
2022-10-18T16:06:44.799Z,20.65
2022-10-18T16:09:53.395Z,16.23
2022-10-18T16:13:01.796Z,19.67
2022-10-18T16:16:27.818Z,17.37
2022-10-18T16:19:42.799Z,18.17
2022-10-18T16:22:57.806Z,20.60
2022-10-18T16:26:15.023Z,15.47
2022-10-18T16:29:48.804Z,17.60
2022-10-18T16:32:54.667Z,17.37
2022-10-18T16:36:09.859Z,19.77
2022-10-18T16:39:18.395Z,27.98
2022-10-18T16:42:32.998Z,18.33
2022-10-18T16:45:35.017Z,19.83
2022-10-18T16:48:50.816Z,22.05
2022-10-18T16:51:53.965Z,25.05
2022-10-18T16:55:09.828Z,18.05
2022-10-18T17:01:32.838Z,17.87
2022-10-18T17:04:40.812Z,16.33
2022-10-18T17:07:56.853Z,13.68
2022-10-18T17:10:59.340Z,19.50
2022-10-18T17:14:13.885Z,17.70
2022-10-18T17:17:23.145Z,23.60
2022-10-18T17:20:45.904Z,20.92
2022-10-18T17:23:48.071Z,15.27
2022-10-18T17:27:02.854Z,19.83
2022-10-18T17:30:05.711Z,17.03
2022-10-18T17:33:21.839Z,14.43
2022-10-18T17:36:30.142Z,22.25
2022-10-18T17:39:38.708Z,19.58
2022-10-18T17:42:46.847Z,16.98
2022-10-18T17:45:56.295Z,16.37
2022-10-18T17:49:04.849Z,16.57
2022-10-18T17:52:20.220Z,16.17
2022-10-18T17:55:22.087Z,17.70
2022-10-18T17:58:37.888Z,25.50
2022-10-18T18:04:55.928Z,31.73
2022-10-18T18:08:07.140Z,24.60
2022-10-18T18:11:17.246Z,17.35
2022-10-18T18:14:31.863Z,20.12
2022-10-18T18:17:34.566Z,17.53
2022-10-18T18:21:01.950Z,21.87
2022-10-18T18:24:03.905Z,20.70
2022-10-18T18:27:18.893Z,18.67
2022-10-18T18:30:28.284Z,20.80
2022-10-18T18:33:39.923Z,23.73
2022-10-18T18:36:54.909Z,26.77
2022-10-18T18:40:03.120Z,19.60
2022-10-18T18:43:25.070Z,25.42
2022-10-18T18:46:35.884Z,20.98
2022-10-18T18:50:05.938Z,26.00
2022-10-18T18:53:07.985Z,19.80
2022-10-18T18:56:25.917Z,19.20
2022-10-18T18:59:41.253Z,20.98
2022-10-18T19:02:42.965Z,24.75
2022-10-18T19:06:01.111Z,20.13
2022-10-18T19:09:06.840Z,20.70
2022-10-18T19:12:21.908Z,19.52
2022-10-18T19:15:23.984Z,19.70
2022-10-18T19:18:40.352Z,18.87
2022-10-18T19:22:05.250Z,18.67
2022-10-18T19:25:26.295Z,26.57
2022-10-18T19:28:35.989Z,29.40
2022-10-18T19:31:45.316Z,28.12
2022-10-18T19:34:53.960Z,20.08
2022-10-18T19:38:03.427Z,15.97
2022-10-18T19:41:15.024Z,15.60
2022-10-18T19:44:30.924Z,21.02
2022-10-18T19:47:32.617Z,19.15
2022-10-18T19:50:46.920Z,22.23
2022-10-18T19:53:48.733Z,23.53
2022-10-18T19:57:18.545Z,23.77
2022-10-18T20:00:28.923Z,20.20
2022-10-18T20:03:37.851Z,18.98
2022-10-18T20:06:52.907Z,16.48
2022-10-18T20:10:01.965Z,24.10
2022-10-18T20:13:17.903Z,21.03
2022-10-18T20:16:27.684Z,18.52
2022-10-18T20:19:43.010Z,21.15
2022-10-18T20:22:51.257Z,19.85
2022-10-18T20:26:09.940Z,18.90
2022-10-18T20:29:14.829Z,18.10
2022-10-18T20:32:29.924Z,21.87
2022-10-18T20:35:38.528Z,24.08
2022-10-18T20:38:48.975Z,30.58
2022-10-18T20:42:03.944Z,19.73
2022-10-18T20:45:13.967Z,20.97
2022-10-18T20:48:22.520Z,18.33
2022-10-18T20:51:30.992Z,20.83
2022-10-18T20:54:39.623Z,18.52
2022-10-18T20:57:47.959Z,15.40
2022-10-18T21:01:03.888Z,22.30
2022-10-18T21:04:18.939Z,21.00
2022-10-18T21:07:26.966Z,20.05
2022-10-18T21:10:36.508Z,18.50
2022-10-18T21:13:44.972Z,16.83
2022-10-18T21:16:59.993Z,15.17
2022-10-18T21:20:01.724Z,14.43
2022-10-18T21:23:23.048Z,18.00
2022-10-18T21:26:27.156Z,21.80
2022-10-18T21:29:41.987Z,22.90
2022-10-18T21:32:50.548Z,17.23
2022-10-18T21:35:59.010Z,17.60
2022-10-18T21:39:10.785Z,17.77
2022-10-18T21:42:24.520Z,14.85
2022-10-18T21:45:38.973Z,16.93
2022-10-18T21:48:46.503Z,14.73
2022-10-18T21:52:04.107Z,14.90
2022-10-18T21:55:12.849Z,15.57
2022-10-18T21:58:28.098Z,18.73
2022-10-18T22:01:32.740Z,20.43
2022-10-18T22:04:48.162Z,16.37
2022-10-18T22:07:56.052Z,19.20
2022-10-18T22:11:12.055Z,15.48
2022-10-18T22:14:19.992Z,15.15
2022-10-18T22:17:28.519Z,16.03
2022-10-18T22:20:46.041Z,13.60
2022-10-18T22:23:56.507Z,17.30
2022-10-18T22:27:05.026Z,14.52
2022-10-18T22:30:14.928Z,18.70
2022-10-18T22:33:23.326Z,18.07
2022-10-18T22:36:38.999Z,16.27
2022-10-18T22:39:53.981Z,14.80
2022-10-18T22:43:02.091Z,16.62
2022-10-18T22:46:19.047Z,17.75
2022-10-18T22:49:27.047Z,14.67
2022-10-18T22:52:42.059Z,15.67
2022-10-18T22:55:58.008Z,14.85
2022-10-18T22:59:14.046Z,16.58
2022-10-18T23:02:22.051Z,15.38
2022-10-18T23:05:30.661Z,14.57
2022-10-18T23:08:39.027Z,14.83
2022-10-18T23:11:47.653Z,15.18
2022-10-18T23:14:56.041Z,18.10
2022-10-18T23:18:12.064Z,14.30
2022-10-18T23:21:28.101Z,15.90
2022-10-18T23:24:43.029Z,16.37
2022-10-18T23:27:44.943Z,16.10
2022-10-18T23:31:03.142Z,18.55
2022-10-18T23:34:05.766Z,17.02
2022-10-18T23:37:20.052Z,13.80
2022-10-18T23:40:30.033Z,14.57
2022-10-18T23:43:46.165Z,13.98
2022-10-18T23:47:01.053Z,16.58
2022-10-18T23:50:10.273Z,12.60
2022-10-18T23:53:19.072Z,15.47
2022-10-18T23:56:34.067Z,19.27
2022-10-18T23:59:35.992Z,13.73
